createdAt,value
2022-08-27T00:02:21.918Z,100026.05
2022-08-27T00:04:50.941Z,100023.52
2022-08-27T00:07:19.989Z,100019.27
2022-08-27T00:09:49.735Z,100017.71
2022-08-27T00:12:18.555Z,100011.25
2022-08-27T00:14:47.708Z,100008.02
2022-08-27T00:17:17.293Z,100006.35
2022-08-27T00:19:45.839Z,100004.10
2022-08-27T00:22:15.067Z,99999.33
2022-08-27T00:24:49.008Z,99995.77
2022-08-27T00:27:19.634Z,99996.52
2022-08-27T00:29:48.896Z,99995.55
2022-08-27T00:32:17.685Z,99995.41
2022-08-27T00:34:46.660Z,99994.86
2022-08-27T00:37:15.560Z,99993.58
2022-08-27T00:39:44.245Z,99994.79
2022-08-27T00:42:13.387Z,99995.31
2022-08-27T00:44:42.328Z,99997.92
2022-08-27T00:47:15.685Z,99996.10
2022-08-27T00:49:47.988Z,99997.49
2022-08-27T00:52:22.612Z,99999.04
2022-08-27T00:54:56.820Z,99997.22
2022-08-27T00:57:26.750Z,99996.30
2022-08-27T00:59:55.391Z,99995.15
2022-08-27T01:02:29.081Z,99991.57
2022-08-27T01:05:02.630Z,99990.29
2022-08-27T01:07:35.488Z,99992.20
2022-08-27T01:10:07.570Z,99990.17
2022-08-27T01:12:38.542Z,99987.90
2022-08-27T01:15:16.943Z,99987.06
2022-08-27T01:17:50.228Z,99988.36
2022-08-27T01:20:22.615Z,99985.84
2022-08-27T01:23:02.716Z,99984.78
2022-08-27T01:25:31.895Z,99988.40
2022-08-27T01:28:03.426Z,99984.98
2022-08-27T01:30:32.723Z,99984.27
2022-08-27T01:36:04.008Z,99982.44
2022-08-27T01:38:33.096Z,99982.52
2022-08-27T01:41:02.897Z,99981.56
2022-08-27T01:43:31.889Z,99979.23
2022-08-27T01:46:00.350Z,99975.88
2022-08-27T01:48:28.910Z,99978.98
2022-08-27T01:50:57.415Z,99976.90
2022-08-27T01:53:27.727Z,99979.40
2022-08-27T01:55:56.585Z,99978.80
2022-08-27T01:58:28.706Z,99981.00
2022-08-27T02:01:00.888Z,99982.20
2022-08-27T02:03:29.980Z,99981.39
2022-08-27T02:05:58.540Z,99980.83
2022-08-27T02:08:27.054Z,99978.61
2022-08-27T02:10:55.588Z,99976.88
2022-08-27T02:13:24.159Z,99976.06
2022-08-27T02:15:52.728Z,99973.50
2022-08-27T02:18:21.315Z,99971.35
2022-08-27T02:20:49.973Z,99970.65
2022-08-27T02:23:19.024Z,99969.95
2022-08-27T02:25:47.519Z,99967.30
2022-08-27T02:28:16.052Z,99967.96
2022-08-27T02:30:44.583Z,99967.94
2022-08-27T02:33:13.426Z,99970.38
2022-08-27T02:35:43.756Z,99973.33
2022-08-27T02:38:13.987Z,99982.64
2022-08-27T02:40:42.583Z,99985.69
2022-08-27T02:43:15.733Z,99986.38
2022-08-27T02:45:44.852Z,99985.44
2022-08-27T02:48:13.427Z,99987.52
2022-08-27T02:50:43.103Z,99986.46
2022-08-27T02:53:11.924Z,99988.17
2022-08-27T02:55:40.405Z,99988.23
2022-08-27T02:58:09.398Z,99987.27
2022-08-27T03:00:38.232Z,99987.75
2022-08-27T03:03:06.687Z,99983.89
2022-08-27T03:05:35.283Z,99986.58
2022-08-27T03:08:04.466Z,99985.02
2022-08-27T03:10:33.068Z,99984.92
2022-08-27T03:13:01.637Z,99984.33
2022-08-27T03:15:30.143Z,99980.02
2022-08-27T03:18:16.837Z,99979.56
2022-08-27T03:20:47.574Z,99983.36
2022-08-27T03:23:17.337Z,99979.64
2022-08-27T03:25:51.082Z,99979.38
2022-08-27T03:28:23.168Z,99981.52
2022-08-27T03:30:54.542Z,99981.54
2022-08-27T03:33:23.203Z,99977.15
2022-08-27T03:35:52.246Z,99976.31
2022-08-27T03:38:21.756Z,99975.44
2022-08-27T03:40:50.717Z,99975.46
2022-08-27T03:43:21.331Z,99975.26
2022-08-27T03:46:00.683Z,99975.70
2022-08-27T03:48:31.622Z,99977.64
2022-08-27T03:51:05.129Z,99974.80
2022-08-27T03:53:33.764Z,99976.16
2022-08-27T03:56:02.482Z,99973.48
2022-08-27T03:58:31.169Z,99976.11
2022-08-27T04:01:00.139Z,99973.59
2022-08-27T04:03:28.751Z,99969.91
2022-08-27T04:05:58.051Z,99971.05
2022-08-27T04:08:27.328Z,99971.66
2022-08-27T04:10:56.353Z,99969.80
2022-08-27T04:13:25.425Z,99969.86
2022-08-27T04:15:56.492Z,99973.32
2022-08-27T04:18:25.070Z,99970.87
2022-08-27T04:20:53.608Z,99971.58
2022-08-27T04:23:22.317Z,99966.74
2022-08-27T04:25:51.067Z,99969.31
2022-08-27T04:28:19.707Z,99968.86
2022-08-27T04:30:50.950Z,99967.74
2022-08-27T04:33:19.489Z,99970.45
2022-08-27T04:35:48.052Z,99970.94
2022-08-27T04:38:16.581Z,99971.27
2022-08-27T04:41:03.654Z,99968.63
2022-08-27T04:43:32.137Z,99970.56
2022-08-27T04:46:01.075Z,99976.23
2022-08-27T04:48:29.572Z,99976.73
2022-08-27T04:50:58.118Z,99974.23
2022-08-27T04:53:26.954Z,99971.60
2022-08-27T04:55:56.913Z,99973.47
2022-08-27T04:58:26.671Z,99970.67
2022-08-27T05:00:59.512Z,99965.08
2022-08-27T05:03:28.932Z,99966.74
2022-08-27T05:06:02.312Z,99966.10
2022-08-27T05:08:31.356Z,99971.41
2022-08-27T05:11:01.179Z,99966.67
2022-08-27T05:13:30.336Z,99973.77
2022-08-27T05:16:01.110Z,99970.38
2022-08-27T05:18:30.355Z,99971.80
2022-08-27T05:21:00.115Z,99969.06
2022-08-27T05:23:28.949Z,99971.15
2022-08-27T05:25:58.151Z,99970.59
2022-08-27T05:28:28.720Z,99972.48
2022-08-27T05:31:05.935Z,99972.48
2022-08-27T05:33:34.609Z,99968.32
2022-08-27T05:36:04.155Z,99972.46
2022-08-27T05:38:33.629Z,99970.91
2022-08-27T05:41:08.483Z,99969.52
2022-08-27T05:43:38.401Z,99972.39
2022-08-27T05:46:08.852Z,99974.14
2022-08-27T05:48:38.583Z,99971.59
2022-08-27T05:51:13.668Z,99973.48
2022-08-27T05:53:45.274Z,99972.79
2022-08-27T05:56:15.581Z,99970.14
2022-08-27T05:59:03.837Z,99976.19
2022-08-27T06:01:35.366Z,99976.48
2022-08-27T06:04:05.244Z,99977.50
2022-08-27T06:06:36.535Z,99979.02
2022-08-27T06:09:05.840Z,99976.98
2022-08-27T06:11:34.796Z,99973.80
2022-08-27T06:14:03.853Z,99973.31
2022-08-27T06:16:32.606Z,99968.13
2022-08-27T06:19:01.272Z,99969.58
2022-08-27T06:21:30.399Z,99963.97
2022-08-27T06:23:59.109Z,99967.65
2022-08-27T06:26:29.181Z,99970.29
2022-08-27T06:29:01.708Z,99972.45
2022-08-27T06:31:30.714Z,99973.65
2022-08-27T06:34:07.269Z,99976.94
2022-08-27T06:36:38.761Z,99973.69
2022-08-27T06:39:08.316Z,99975.58
2022-08-27T06:41:36.747Z,99982.19
2022-08-27T06:44:11.886Z,99977.16
2022-08-27T06:46:40.979Z,99978.77
2022-08-27T06:49:10.085Z,99980.67
2022-08-27T06:51:40.175Z,99981.73
2022-08-27T06:54:11.685Z,99974.36
2022-08-27T06:56:41.409Z,99975.20
2022-08-27T06:59:14.869Z,99975.53
2022-08-27T07:01:45.467Z,99975.51
2022-08-27T07:04:17.596Z,99979.19
2022-08-27T07:06:46.646Z,99979.95
2022-08-27T07:09:15.917Z,99979.67
2022-08-27T07:11:44.322Z,99975.42
2022-08-27T07:14:12.781Z,99977.79
2022-08-27T07:16:42.714Z,99972.87
2022-08-27T07:19:13.887Z,99963.30
2022-08-27T07:21:42.398Z,99966.42
2022-08-27T07:24:11.968Z,99965.10
2022-08-27T07:26:43.901Z,99965.44
2022-08-27T07:29:14.876Z,99964.61
2022-08-27T07:31:43.843Z,99964.75
2022-08-27T07:34:12.464Z,99963.77
2022-08-27T07:36:41.172Z,99961.91
2022-08-27T07:39:10.211Z,99960.63
2022-08-27T07:41:53.165Z,99962.18
2022-08-27T07:44:26.111Z,99962.99
2022-08-27T07:46:58.099Z,99964.27
2022-08-27T07:49:29.362Z,99964.96
2022-08-27T07:51:57.831Z,99961.52
2022-08-27T07:54:26.967Z,99962.92
2022-08-27T07:56:56.184Z,99962.45
2022-08-27T07:59:26.199Z,99961.84
2022-08-27T08:01:55.840Z,99959.13
2022-08-27T08:04:26.085Z,99956.08
2022-08-27T08:06:55.545Z,99951.80
2022-08-27T08:09:24.483Z,99951.45
2022-08-27T08:11:53.622Z,99954.60
2022-08-27T08:14:22.454Z,99955.31
2022-08-27T08:16:50.902Z,99964.21
2022-08-27T08:19:20.249Z,99964.22
2022-08-27T08:21:48.815Z,99962.27
2022-08-27T08:24:18.232Z,99960.36
2022-08-27T08:26:47.370Z,99962.52
2022-08-27T08:29:18.154Z,99958.67
2022-08-27T08:31:50.248Z,99956.48
2022-08-27T08:34:19.658Z,99956.86
2022-08-27T08:36:54.021Z,99956.53
2022-08-27T08:39:24.341Z,99956.98
2022-08-27T08:41:56.080Z,99960.51
2022-08-27T08:44:31.504Z,99958.98
2022-08-27T08:47:07.795Z,99955.95
2022-08-27T08:49:55.265Z,99958.27
2022-08-27T08:52:32.669Z,99956.61
2022-08-27T08:55:14.012Z,99957.41
2022-08-27T08:57:49.949Z,99957.42
2022-08-27T09:00:19.515Z,99954.80
2022-08-27T09:02:54.332Z,99951.98
2022-08-27T09:05:27.428Z,99950.98
2022-08-27T09:08:28.916Z,99951.31
2022-08-27T09:11:04.865Z,99948.60
2022-08-27T09:13:39.450Z,99953.26
2022-08-27T09:16:08.977Z,99956.48
2022-08-27T09:18:41.076Z,99950.55
2022-08-27T09:21:27.566Z,99949.62
2022-08-27T09:24:14.231Z,99947.95
2022-08-27T09:26:44.763Z,99946.10
2022-08-27T09:29:15.737Z,99947.00
2022-08-27T09:31:46.318Z,99946.95
2022-08-27T09:34:15.147Z,99942.42
2022-08-27T09:36:59.500Z,99941.33
2022-08-27T09:39:41.964Z,99943.05
2022-08-27T09:42:34.994Z,99942.21
2022-08-27T09:45:08.783Z,99939.30
2022-08-27T09:47:46.998Z,99943.77
2022-08-27T09:50:18.221Z,99937.94
2022-08-27T09:52:54.355Z,99935.50
2022-08-27T09:55:48.207Z,99935.02
2022-08-27T09:58:20.805Z,99936.45
2022-08-27T10:00:58.090Z,99936.34
2022-08-27T10:03:30.058Z,99927.69
2022-08-27T10:06:02.505Z,99931.90
2022-08-27T10:08:38.588Z,99929.23
2022-08-27T10:11:14.382Z,99929.70
2022-08-27T10:13:51.768Z,99928.83
2022-08-27T10:16:41.930Z,99925.98
2022-08-27T10:19:24.826Z,99923.95
2022-08-27T10:22:00.235Z,99924.53
2022-08-27T10:24:38.464Z,99919.66
2022-08-27T10:27:16.266Z,99918.70
2022-08-27T10:29:52.256Z,99917.89
2022-08-27T10:32:37.996Z,99920.20
2022-08-27T10:35:14.765Z,99917.70
2022-08-27T10:37:52.570Z,99919.95
2022-08-27T10:40:29.187Z,99912.45
2022-08-27T10:43:09.963Z,99912.52
2022-08-27T10:45:47.245Z,99905.74
2022-08-27T10:48:30.545Z,99907.17
2022-08-27T10:51:06.516Z,99909.11
2022-08-27T10:53:43.664Z,99907.83
2022-08-27T10:56:19.172Z,99905.35
2022-08-27T10:59:12.191Z,99904.95
2022-08-27T11:01:48.401Z,99904.36
2022-08-27T11:04:21.624Z,99901.83
2022-08-27T11:06:57.488Z,99898.86
2022-08-27T11:09:34.714Z,99895.58
2022-08-27T11:12:16.110Z,99896.02
2022-08-27T11:14:51.872Z,99895.79
2022-08-27T11:17:25.323Z,99897.70
2022-08-27T11:19:59.956Z,99894.25
2022-08-27T11:22:34.542Z,99892.33
2022-08-27T11:25:15.275Z,99896.61
2022-08-27T11:27:46.208Z,99892.28
2022-08-27T11:30:23.715Z,99892.08
2022-08-27T11:32:59.248Z,99890.02
2022-08-27T11:35:39.717Z,99888.45
2022-08-27T11:38:35.661Z,99889.45
2022-08-27T11:41:17.392Z,99890.14
2022-08-27T11:43:46.979Z,99888.05
2022-08-27T11:46:25.119Z,99888.41
2022-08-27T11:49:00.163Z,99896.38
2022-08-27T11:51:33.738Z,99889.56
2022-08-27T11:54:06.205Z,99886.02
2022-08-27T11:56:40.842Z,99884.22
2022-08-27T11:59:21.983Z,99883.86
2022-08-27T12:01:54.384Z,99883.48
2022-08-27T12:04:35.759Z,99879.31
2022-08-27T12:07:24.511Z,99876.64
2022-08-27T12:10:16.408Z,99881.91
2022-08-27T12:13:04.680Z,99877.84
2022-08-27T12:15:49.506Z,99878.52
2022-08-27T12:18:36.586Z,99876.09
2022-08-27T12:21:19.925Z,99875.68
2022-08-27T12:24:02.306Z,99872.69
2022-08-27T12:26:34.044Z,99875.23
2022-08-27T12:29:24.433Z,99869.58
2022-08-27T12:32:04.446Z,99869.98
2022-08-27T12:34:44.540Z,99871.16
2022-08-27T12:37:13.420Z,99868.48
2022-08-27T12:39:48.882Z,99867.31
2022-08-27T12:42:21.384Z,99864.08
2022-08-27T12:44:55.654Z,99867.21
2022-08-27T12:47:24.576Z,99867.41
2022-08-27T12:49:56.925Z,99864.23
2022-08-27T12:52:49.288Z,99862.07
2022-08-27T12:55:26.956Z,99860.99
2022-08-27T12:58:04.070Z,99861.66
2022-08-27T13:00:38.394Z,99861.56
2022-08-27T13:03:29.269Z,99855.96
2022-08-27T13:06:00.415Z,99857.92
2022-08-27T13:08:32.514Z,99860.48
2022-08-27T13:11:12.741Z,99855.55
2022-08-27T13:13:42.994Z,99853.92
2022-08-27T13:16:11.639Z,99856.74
2022-08-27T13:18:41.147Z,99853.30
2022-08-27T13:21:16.473Z,99852.48
2022-08-27T13:23:57.713Z,99852.88
2022-08-27T13:26:29.297Z,99854.15
2022-08-27T13:29:03.340Z,99853.96
2022-08-27T13:31:34.156Z,99851.77
2022-08-27T13:34:05.851Z,99852.56
2022-08-27T13:36:49.824Z,99859.02
2022-08-27T13:39:18.285Z,99855.19
2022-08-27T13:41:48.987Z,99854.28
2022-08-27T13:44:23.825Z,99854.52
2022-08-27T13:46:59.538Z,99850.01
2022-08-27T13:49:31.728Z,99850.31
2022-08-27T13:52:02.998Z,99847.65
2022-08-27T13:54:33.904Z,99848.65
2022-08-27T13:57:07.950Z,99845.79
2022-08-27T13:59:42.831Z,99846.95
2022-08-27T14:02:27.586Z,99850.91
2022-08-27T14:05:10.788Z,99847.48
2022-08-27T14:07:44.473Z,99846.86
2022-08-27T14:10:30.764Z,99845.80
2022-08-27T14:13:01.720Z,99846.49
2022-08-27T14:15:33.477Z,99851.14
2022-08-27T14:18:03.633Z,99847.13
2022-08-27T14:20:33.014Z,99843.09
2022-08-27T14:23:01.664Z,99844.11
2022-08-27T14:25:30.984Z,99839.18
2022-08-27T14:27:59.428Z,99839.58
2022-08-27T14:30:29.926Z,99835.17
2022-08-27T14:33:00.126Z,99834.05
2022-08-27T14:35:29.577Z,99830.64
2022-08-27T14:37:59.148Z,99832.98
2022-08-27T14:40:27.831Z,99834.40
2022-08-27T14:42:56.291Z,99835.66
2022-08-27T14:45:24.867Z,99834.30
2022-08-27T14:47:53.355Z,99834.67
2022-08-27T14:50:28.191Z,99831.88
2022-08-27T14:52:56.619Z,99831.96
2022-08-27T14:55:25.103Z,99833.13
2022-08-27T14:57:53.663Z,99835.53
2022-08-27T15:00:22.261Z,99833.23
2022-08-27T15:02:51.104Z,99829.89
2022-08-27T15:05:20.341Z,99828.61
2022-08-27T15:07:54.258Z,99833.99
2022-08-27T15:10:23.182Z,99829.75
2022-08-27T15:12:53.851Z,99830.27
2022-08-27T15:15:22.516Z,99826.63
2022-08-27T15:17:51.067Z,99826.27
2022-08-27T15:20:20.604Z,99825.32
2022-08-27T15:22:52.321Z,99825.48
2022-08-27T15:25:21.628Z,99824.81
2022-08-27T15:27:50.276Z,99824.33
2022-08-27T15:30:25.500Z,99823.71
2022-08-27T15:32:55.043Z,99826.10
2022-08-27T15:35:26.222Z,99823.23
2022-08-27T15:37:56.248Z,99820.58
2022-08-27T15:40:26.915Z,99821.36
2022-08-27T15:42:58.525Z,99816.19
2022-08-27T15:45:28.087Z,99815.10
2022-08-27T15:47:56.989Z,99816.00
2022-08-27T15:50:27.416Z,99818.23
2022-08-27T15:52:58.862Z,99815.44
2022-08-27T15:55:29.681Z,99813.86
2022-08-27T15:57:59.261Z,99813.06
2022-08-27T16:00:28.550Z,99812.73
2022-08-27T16:02:57.992Z,99813.09
2022-08-27T16:05:28.366Z,99814.95
2022-08-27T16:07:56.774Z,99817.02
2022-08-27T16:10:25.188Z,99814.02
2022-08-27T16:12:53.701Z,99811.11
2022-08-27T16:15:22.162Z,99812.30
2022-08-27T16:17:55.485Z,99811.47
2022-08-27T16:20:25.195Z,99812.63
2022-08-27T16:22:54.086Z,99810.52
2022-08-27T16:25:23.047Z,99810.25
2022-08-27T16:27:52.611Z,99811.35
2022-08-27T16:30:24.584Z,99813.23
2022-08-27T16:32:55.190Z,99815.42
2022-08-27T16:35:24.559Z,99813.85
2022-08-27T16:37:53.405Z,99813.23
2022-08-27T16:40:21.786Z,99814.20
2022-08-27T16:42:51.641Z,99813.64
2022-08-27T16:45:22.384Z,99817.41
2022-08-27T16:48:09.981Z,99815.73
2022-08-27T16:50:39.602Z,99817.65
2022-08-27T16:53:12.585Z,99818.48
2022-08-27T16:55:42.585Z,99816.42
2022-08-27T16:58:16.377Z,99819.53
2022-08-27T17:00:46.598Z,99821.00
2022-08-27T17:03:16.160Z,99816.73
2022-08-27T17:05:44.561Z,99822.08
2022-08-27T17:08:13.197Z,99819.73
2022-08-27T17:10:45.801Z,99820.91
2022-08-27T17:13:16.241Z,99822.86
2022-08-27T17:15:44.707Z,99826.42
2022-08-27T17:18:13.767Z,99831.75
2022-08-27T17:20:43.278Z,99832.33
2022-08-27T17:23:21.043Z,99834.75
2022-08-27T17:25:49.653Z,99835.66
2022-08-27T17:28:18.129Z,99838.21
2022-08-27T17:30:46.745Z,99845.85
2022-08-27T17:33:20.129Z,99848.05
2022-08-27T17:35:48.698Z,99848.33
2022-08-27T17:38:17.490Z,99851.27
2022-08-27T17:40:46.051Z,99850.83
2022-08-27T17:43:21.522Z,99854.88
2022-08-27T17:45:50.571Z,99852.88
2022-08-27T17:48:23.750Z,99850.98
2022-08-27T17:50:54.641Z,99851.35
2022-08-27T17:53:23.198Z,99857.23
2022-08-27T17:55:51.870Z,99859.45
2022-08-27T17:58:20.460Z,99864.73
2022-08-27T18:00:48.919Z,99865.20
2022-08-27T18:03:20.448Z,99869.89
2022-08-27T18:05:49.781Z,99871.75
2022-08-27T18:08:20.603Z,99871.85
2022-08-27T18:10:49.155Z,99873.27
2022-08-27T18:13:18.048Z,99872.81
2022-08-27T18:15:47.112Z,99874.09
2022-08-27T18:18:15.930Z,99874.73
2022-08-27T18:20:44.263Z,99875.55
2022-08-27T18:23:13.072Z,99876.51
2022-08-27T18:25:44.151Z,99880.66
2022-08-27T18:28:13.681Z,99882.65
2022-08-27T18:30:44.285Z,99884.17
2022-08-27T18:33:13.281Z,99886.50
2022-08-27T18:35:42.571Z,99887.69
2022-08-27T18:38:11.023Z,99886.43
2022-08-27T18:40:43.592Z,99888.34
2022-08-27T18:43:13.353Z,99896.02
2022-08-27T18:45:42.260Z,99898.59
2022-08-27T18:48:13.777Z,99902.10
2022-08-27T18:50:45.225Z,99901.95
2022-08-27T18:53:16.079Z,99901.42
2022-08-27T18:55:45.150Z,99903.83
2022-08-27T18:58:14.077Z,99908.40
2022-08-27T19:00:45.918Z,99913.42
2022-08-27T19:03:19.810Z,99914.61
2022-08-27T19:05:48.956Z,99914.46
2022-08-27T19:08:24.495Z,99916.75
2022-08-27T19:10:52.843Z,99921.86
2022-08-27T19:13:21.725Z,99925.48
2022-08-27T19:15:54.571Z,99926.15
2022-08-27T19:18:25.319Z,99929.48
2022-08-27T19:20:53.977Z,99930.61
2022-08-27T19:23:22.855Z,99931.05
2022-08-27T19:25:52.086Z,99933.69
2022-08-27T19:28:24.862Z,99929.87
2022-08-27T19:30:53.292Z,99933.35
2022-08-27T19:33:22.178Z,99931.38
2022-08-27T19:35:50.918Z,99932.30
2022-08-27T19:38:19.684Z,99931.95
2022-08-27T19:40:48.094Z,99933.17
2022-08-27T19:43:16.477Z,99929.77
2022-08-27T19:45:45.045Z,99929.46
2022-08-27T19:48:13.870Z,99930.14
2022-08-27T19:50:42.299Z,99930.59
2022-08-27T19:53:10.840Z,99929.14
2022-08-27T19:55:44.844Z,99934.45
2022-08-27T19:58:14.275Z,99935.77
2022-08-27T20:00:43.258Z,99938.20
2022-08-27T20:03:12.394Z,99938.97
2022-08-27T20:05:41.057Z,99940.80
2022-08-27T20:08:09.747Z,99940.89
2022-08-27T20:10:41.596Z,99943.20
2022-08-27T20:13:10.069Z,99938.08
2022-08-27T20:15:39.427Z,99945.73
2022-08-27T20:18:10.171Z,99948.89
2022-08-27T20:20:40.170Z,99943.90
2022-08-27T20:23:08.845Z,99945.10
2022-08-27T20:25:37.495Z,99944.66
2022-08-27T20:28:22.271Z,99948.95
2022-08-27T20:30:57.379Z,99943.00
2022-08-27T20:33:26.736Z,99946.31
2022-08-27T20:35:55.879Z,99944.92
2022-08-27T20:38:24.514Z,99942.41
2022-08-27T20:40:52.903Z,99939.18
2022-08-27T20:43:21.375Z,99941.02
2022-08-27T20:45:49.795Z,99944.55
2022-08-27T20:48:18.270Z,99946.06
2022-08-27T20:50:46.669Z,99943.02
2022-08-27T20:53:15.161Z,99944.42
2022-08-27T20:55:43.561Z,99942.20
2022-08-27T20:58:30.231Z,99944.04
2022-08-27T21:00:59.828Z,99940.98
2022-08-27T21:03:28.660Z,99938.31
2022-08-27T21:05:57.063Z,99936.63
2022-08-27T21:08:25.454Z,99934.32
2022-08-27T21:10:56.548Z,99935.67
2022-08-27T21:13:27.832Z,99938.18
2022-08-27T21:15:56.852Z,99938.58
2022-08-27T21:18:29.530Z,99935.90
2022-08-27T21:20:58.703Z,99936.30
2022-08-27T21:23:28.346Z,99934.26
2022-08-27T21:26:03.077Z,99931.61
2022-08-27T21:28:32.274Z,99929.77
2022-08-27T21:31:00.810Z,99927.71
2022-08-27T21:33:29.193Z,99923.33
2022-08-27T21:35:57.556Z,99922.21
2022-08-27T21:38:26.808Z,99922.08
2022-08-27T21:40:55.362Z,99922.27
2022-08-27T21:43:25.619Z,99923.33
2022-08-27T21:45:55.730Z,99923.96
2022-08-27T21:48:24.887Z,99922.37
2022-08-27T21:50:53.814Z,99922.27
2022-08-27T21:53:22.556Z,99922.02
2022-08-27T21:55:53.735Z,99926.10
2022-08-27T21:58:26.236Z,99922.05
2022-08-27T22:00:56.153Z,99923.08
2022-08-27T22:03:25.349Z,99924.95
2022-08-27T22:05:54.234Z,99919.34
2022-08-27T22:08:23.108Z,99917.20
2022-08-27T22:10:54.685Z,99914.30
2022-08-27T22:13:23.806Z,99916.94
2022-08-27T22:15:52.316Z,99915.74
2022-08-27T22:18:23.006Z,99914.52
2022-08-27T22:20:53.211Z,99913.01
2022-08-27T22:23:22.042Z,99909.75
2022-08-27T22:25:50.388Z,99912.42
2022-08-27T22:28:19.503Z,99907.52
2022-08-27T22:30:47.859Z,99911.77
2022-08-27T22:33:16.874Z,99911.09
2022-08-27T22:35:45.333Z,99907.82
2022-08-27T22:38:14.189Z,99906.27
2022-08-27T22:40:42.990Z,99906.88
2022-08-27T22:43:12.905Z,99905.38
2022-08-27T22:45:41.319Z,99904.64
2022-08-27T22:48:09.708Z,99904.56
2022-08-27T22:50:38.095Z,99903.16
2022-08-27T22:53:06.589Z,99902.88
2022-08-27T22:55:35.443Z,99900.54
2022-08-27T22:58:04.732Z,99897.58
2022-08-27T23:00:35.600Z,99897.45
2022-08-27T23:03:06.460Z,99895.26
2022-08-27T23:05:41.589Z,99896.33
2022-08-27T23:08:13.445Z,99897.88
2022-08-27T23:10:43.050Z,99898.33
2022-08-27T23:13:12.100Z,99895.73
2022-08-27T23:15:41.108Z,99896.07
2022-08-27T23:18:09.995Z,99894.27
2022-08-27T23:20:38.441Z,99892.40
2022-08-27T23:23:07.376Z,99891.77
2022-08-27T23:26:09.118Z,99889.54
2022-08-27T23:28:38.139Z,99894.52
2022-08-27T23:31:07.306Z,99891.59
2022-08-27T23:33:35.843Z,99892.55
2022-08-27T23:36:04.843Z,99887.55
2022-08-27T23:38:33.639Z,99887.81
2022-08-27T23:41:02.137Z,99886.66
2022-08-27T23:43:30.574Z,99884.45
2022-08-27T23:45:59.111Z,99882.61
2022-08-27T23:48:27.558Z,99880.98
2022-08-27T23:50:55.929Z,99883.76
2022-08-27T23:53:24.351Z,99883.30
2022-08-27T23:55:52.870Z,99883.06
2022-08-27T23:58:21.322Z,99881.91
